Aérodrome :







RETROUVEZ-NOUS SUR...

 
LOGIN :

S'inscrire | Disclaimer

   EN    FR    IT 

 









Légende :    VFR   VFR Marginal   IFR   IFR Intensif   IFR Très Intensif
Visi : 
Plafond : 
>= 8 km
>= 3000ft
5 à 8 km
1000 à 3000 ft
1500m à 5 km
500 à 1000 ft
800 à 1500m
200 à 500 ft
< 800m
< 200 ft
Symboles :   Orages  Brouillard  Fortes neiges  Fortes précipitations  Vent > 20 kt






- Altitude de l'aérodrome : 348 ft


KFIT - Fitchburg Municipal

DERNIER METAR :
  • 172152Z AUTO 32009G21KT 10SM CLR M09/M23 A3060 RMK AO2 SLP368 T10891233

METARs EXPIRÉS :
  • 172052Z AUTO 33014KT 10SM CLR M07/M23 A3056 RMK AO2 SLP356 T10721228 53014
  • 171952Z AUTO 32012G22KT 10SM CLR M06/M22 A3054 RMK AO2 PK WND 31026/1931 SLP349 T10611222

TAF N/A



MET'MAP, la Météo Aéronautique d'un coup d'oeil ! - Copyright ORBIFLY Décembre 2007 - Disclaimer

ORBIFLY MET'MAP TEAM :

Programmation & Développement : Alexandra Zaïnal
Sur une idée originale de : Baudouin d'Aumeries
Assistance à la programmation : Marc-Olivier Méhu
Soutien technique & logistique : Manuel Goepfert

Contact : metmap@orbifly.com




SOURCES & CREDITS :

   NOAA